Time;durP1;ratioP1;P1;durP2;ratioP2;P2;SDS_P1;SDS_P2;PMS_P1;PMS_P2;Temp;Humidity;BMP_temperature;BMP_pressure;BME280_temperature;BME280_humidity;BME280_pressure;Samples;Min_cycle;Max_cycle;Signal;HPM_P1;HPM_P2
2024/01/21 00:01:29;;;;;;;3.17;2.93;;;1.10;99.90;;;;;;5093926;28;20027;-78
2024/01/21 00:03:55;;;;;;;3.95;3.58;;;1.00;96.60;;;;;;5084157;28;20027;-78
2024/01/21 00:06:21;;;;;;;4.00;3.03;;;0.90;99.90;;;;;;5102080;28;20009;-78
2024/01/21 00:08:46;;;;;;;3.97;2.47;;;0.80;99.90;;;;;;5085676;28;20026;-78
2024/01/21 00:11:12;;;;;;;3.60;2.43;;;0.70;99.90;;;;;;5103891;28;20027;-78
2024/01/21 00:13:38;;;;;;;2.50;2.23;;;0.70;99.90;;;;;;5100051;28;20022;-78
2024/01/21 00:16:04;;;;;;;2.60;1.97;;;0.70;83.60;;;;;;5100908;28;20078;-79
2024/01/21 00:18:29;;;;;;;2.33;1.40;;;0.80;11.80;;;;;;5103584;28;20110;-78
2024/01/21 00:20:55;;;;;;;1.57;1.47;;;0.90;1.00;;;;;;5099986;28;20106;-78
2024/01/21 00:23:21;;;;;;;2.90;2.37;;;1.10;1.00;;;;;;5102973;28;20028;-78
2024/01/21 00:25:46;;;;;;;2.90;2.50;;;1.10;29.00;;;;;;5100310;28;20063;-77
2024/01/21 00:28:15;;;;;;;4.40;4.10;;;1.00;96.10;;;;;;5093021;28;20028;-78
2024/01/21 00:30:41;;;;;;;6.43;3.53;;;0.90;99.90;;;;;;5099563;28;20027;-78
2024/01/21 00:33:07;;;;;;;4.63;3.50;;;0.80;99.90;;;;;;5084821;28;20032;-78
2024/01/21 00:35:32;;;;;;;3.40;3.13;;;0.70;99.90;;;;;;5083550;28;20020;-78
2024/01/21 00:37:58;;;;;;;2.53;2.27;;;0.80;99.90;;;;;;5101364;28;20027;-78
2024/01/21 00:40:24;;;;;;;6.40;3.13;;;0.80;50.10;;;;;;5064554;28;20090;-78
2024/01/21 00:42:50;;;;;;;3.97;3.50;;;0.90;99.90;;;;;;5063886;28;20051;-77
2024/01/21 00:45:15;;;;;;;3.23;2.93;;;0.90;99.90;;;;;;5096572;28;20020;-77
2024/01/21 00:47:41;;;;;;;4.20;3.80;;;0.80;99.90;;;;;;5083290;28;20390;-78
2024/01/21 00:50:07;;;;;;;5.53;4.10;;;0.70;99.90;;;;;;5083215;28;20031;-78
2024/01/21 00:52:33;;;;;;;3.93;3.40;;;0.70;99.90;;;;;;5079408;28;20035;-77
2024/01/21 00:54:59;;;;;;;3.37;3.17;;;0.70;99.90;;;;;;5098574;28;20024;-77
2024/01/21 00:57:24;;;;;;;3.40;3.20;;;0.70;99.90;;;;;;5083209;28;20020;-77
2024/01/21 00:59:50;;;;;;;3.10;2.60;;;0.50;99.90;;;;;;5098844;28;20052;-78
2024/01/21 01:02:16;;;;;;;4.90;3.00;;;0.40;99.90;;;;;;5083204;28;20032;-78
2024/01/21 01:04:41;;;;;;;2.67;2.47;;;0.30;99.90;;;;;;5060789;28;20459;-77
2024/01/21 01:07:07;;;;;;;2.23;1.77;;;0.30;96.20;;;;;;5080889;28;20116;-77
2024/01/21 01:09:33;;;;;;;2.17;2.03;;;0.40;47.10;;;;;;5083957;28;20028;-77
2024/01/21 01:11:58;;;;;;;2.30;2.00;;;0.50;1.00;;;;;;5081933;28;20024;-77
2024/01/21 01:14:24;;;;;;;3.20;2.13;;;0.50;64.20;;;;;;5080409;28;20467;-77
2024/01/21 01:16:50;;;;;;;2.37;2.17;;;0.70;27.00;;;;;;5064016;28;20039;-78
2024/01/21 01:19:15;;;;;;;3.67;1.30;;;0.70;1.00;;;;;;5083018;28;20038;-78
2024/01/21 01:21:41;;;;;;;2.23;1.87;;;0.90;1.00;;;;;;5079758;28;20039;-78
2024/01/21 01:24:07;;;;;;;2.50;2.30;;;1.00;1.00;;;;;;5079171;28;20032;-77
2024/01/21 01:26:33;;;;;;;2.53;1.50;;;1.00;1.00;;;;;;5083154;28;20027;-78
2024/01/21 01:28:59;;;;;;;4.87;3.87;;;1.10;1.00;;;;;;5082929;28;20077;-78
2024/01/21 01:31:25;;;;;;;4.67;4.23;;;1.10;1.00;;;;;;5061448;28;20025;-78
2024/01/21 01:33:51;;;;;;;3.50;3.20;;;1.00;1.00;;;;;;5064096;28;20031;-77
2024/01/21 01:36:16;;;;;;;2.17;1.97;;;1.00;1.00;;;;;;5083857;28;20025;-77
2024/01/21 01:38:42;;;;;;;1.70;1.60;;;1.00;1.00;;;;;;5090760;28;20020;-77
2024/01/21 01:41:08;;;;;;;2.37;2.00;;;1.10;1.00;;;;;;5108332;28;20023;-78
2024/01/21 01:43:37;;;;;;;2.27;1.77;;;1.20;1.00;;;;;;5112814;28;20073;-77
2024/01/21 01:46:04;;;;;;;3.17;2.17;;;1.30;1.00;;;;;;5106437;28;20364;-78
2024/01/21 01:48:31;;;;;;;4.17;2.40;;;1.40;99.90;;;;;;5108128;28;20031;-77
2024/01/21 01:50:58;;;;;;;4.03;2.20;;;1.40;99.90;;;;;;5087412;28;20039;-78
2024/01/21 01:53:25;;;;;;;3.43;2.13;;;1.60;99.90;;;;;;5104112;28;20032;-77
2024/01/21 01:55:50;;;;;;;2.33;2.13;;;1.60;99.90;;;;;;5085230;28;20020;-77
2024/01/21 01:58:18;;;;;;;2.50;2.30;;;1.60;99.90;;;;;;5120313;27;20080;-77
2024/01/21 02:00:45;;;;;;;6.60;2.60;;;1.70;99.90;;;;;;5108644;28;20028;-78
2024/01/21 02:03:12;;;;;;;2.33;2.00;;;1.70;99.90;;;;;;5106138;28;20035;-78
2024/01/21 02:05:38;;;;;;;3.20;2.30;;;1.70;99.90;;;;;;5107041;28;20035;-78
2024/01/21 02:08:04;;;;;;;2.50;1.90;;;1.70;99.90;;;;;;5105092;28;20040;-78
2024/01/21 02:10:30;;;;;;;3.50;1.97;;;1.70;99.90;;;;;;5107156;28;20034;-77
2024/01/21 02:12:56;;;;;;;2.30;2.10;;;1.70;99.90;;;;;;5122897;27;20383;-78
2024/01/21 02:15:22;;;;;;;4.73;2.40;;;1.70;99.90;;;;;;5107786;28;20026;-78
2024/01/21 02:17:48;;;;;;;3.13;2.23;;;1.80;99.90;;;;;;5107914;28;20051;-77
2024/01/21 02:20:15;;;;;;;2.80;2.00;;;1.80;99.90;;;;;;5104515;28;20028;-78
2024/01/21 02:22:42;;;;;;;4.53;2.47;;;1.80;99.90;;;;;;5106271;28;20031;-77
2024/01/21 02:25:09;;;;;;;4.00;2.27;;;1.80;99.90;;;;;;5092101;28;20110;-77
2024/01/21 02:27:39;;;;;;;2.17;2.00;;;1.90;99.90;;;;;;5109944;28;20027;-77
2024/01/21 02:30:06;;;;;;;2.73;2.10;;;1.90;99.90;;;;;;5108942;28;20034;-77
2024/01/21 02:32:31;;;;;;;2.80;2.50;;;1.80;99.90;;;;;;5110129;28;20024;-77
2024/01/21 02:34:57;;;;;;;2.03;1.87;;;1.90;99.90;;;;;;5106177;28;20027;-78
2024/01/21 02:37:23;;;;;;;2.33;2.03;;;1.90;99.90;;;;;;5105229;28;20091;-77
2024/01/21 02:39:48;;;;;;;3.43;1.70;;;1.90;99.90;;;;;;5110410;28;20130;-77
2024/01/21 02:42:14;;;;;;;3.63;2.00;;;1.90;99.90;;;;;;5084839;28;20030;-78
2024/01/21 02:44:40;;;;;;;2.17;1.50;;;1.90;99.90;;;;;;5112062;28;20570;-77
2024/01/21 02:47:09;;;;;;;2.00;1.60;;;1.90;99.90;;;;;;5114755;28;20019;-77
2024/01/21 02:49:34;;;;;;;1.50;1.40;;;1.90;99.90;;;;;;5115600;28;20011;-78
2024/01/21 02:52:00;;;;;;;1.80;1.67;;;1.90;99.90;;;;;;5114338;28;20015;-77
2024/01/21 02:54:26;;;;;;;3.00;1.80;;;1.90;99.90;;;;;;5115234;28;20016;-77
2024/01/21 02:56:52;;;;;;;1.60;1.50;;;1.90;99.90;;;;;;5099447;28;20019;-77
2024/01/21 02:59:18;;;;;;;2.33;1.53;;;1.90;99.90;;;;;;5117295;28;20023;-77
2024/01/21 03:01:44;;;;;;;1.97;1.40;;;1.90;99.90;;;;;;5096351;28;20027;-77
2024/01/21 03:04:11;;;;;;;2.60;1.47;;;2.00;99.90;;;;;;5117133;28;20024;-77
2024/01/21 03:06:37;;;;;;;1.27;1.17;;;2.00;99.90;;;;;;5097231;28;20084;-77
2024/01/21 03:09:03;;;;;;;1.30;1.23;;;2.10;99.90;;;;;;5115005;28;20077;-77
2024/01/21 03:11:32;;;;;;;1.43;1.33;;;2.10;99.90;;;;;;5112930;28;20020;-74
2024/01/21 03:13:58;;;;;;;1.03;1.03;;;2.20;99.90;;;;;;5112080;28;20023;-74
2024/01/21 03:16:24;;;;;;;1.53;1.20;;;2.20;99.90;;;;;;5093410;28;20031;-74
2024/01/21 03:18:49;;;;;;;2.13;1.10;;;2.30;99.90;;;;;;5108835;28;20016;-74
2024/01/21 03:21:15;;;;;;;1.10;1.03;;;2.20;99.90;;;;;;5089983;28;20089;-74
2024/01/21 03:23:41;;;;;;;1.37;1.27;;;2.30;99.90;;;;;;5101650;28;20128;-73
2024/01/21 03:26:07;;;;;;;1.30;1.20;;;2.30;99.90;;;;;;5084117;28;20038;-73
2024/01/21 03:28:33;;;;;;;1.13;1.07;;;2.30;99.90;;;;;;5089277;28;20028;-74
2024/01/21 03:30:59;;;;;;;1.10;1.10;;;2.30;99.90;;;;;;5102196;28;20386;-74
2024/01/21 03:33:26;;;;;;;3.47;1.00;;;2.20;99.90;;;;;;5098991;28;20426;-73
2024/01/21 03:35:52;;;;;;;1.23;1.13;;;2.30;99.90;;;;;;5098688;28;20016;-74
2024/01/21 03:38:18;;;;;;;1.87;1.10;;;2.30;99.90;;;;;;5080972;28;20019;-74
2024/01/21 03:40:44;;;;;;;1.10;1.00;;;2.30;99.90;;;;;;5102602;28;20040;-74
2024/01/21 03:43:09;;;;;;;1.57;1.30;;;2.30;99.90;;;;;;5102523;28;20383;-74
2024/01/21 03:45:35;;;;;;;0.90;0.90;;;2.40;99.90;;;;;;5090940;28;20023;-73
2024/01/21 03:48:01;;;;;;;2.13;0.90;;;2.40;99.90;;;;;;5100216;28;20174;-74
2024/01/21 03:50:27;;;;;;;1.10;1.00;;;2.40;99.90;;;;;;5103706;28;20028;-73
2024/01/21 03:52:52;;;;;;;1.50;1.40;;;2.40;99.90;;;;;;5100915;28;20064;-74
2024/01/21 03:55:20;;;;;;;1.33;1.23;;;2.40;99.90;;;;;;5102815;28;20379;-74
2024/01/21 03:57:45;;;;;;;1.03;1.03;;;2.40;99.90;;;;;;5100784;28;20024;-74
2024/01/21 04:00:12;;;;;;;1.03;1.00;;;2.40;99.90;;;;;;5119167;27;20020;-73
2024/01/21 04:02:38;;;;;;;1.87;1.10;;;2.40;99.90;;;;;;5082184;28;20031;-74
2024/01/21 04:05:05;;;;;;;0.67;0.67;;;2.40;99.90;;;;;;5115775;27;20024;-74
2024/01/21 04:07:31;;;;;;;1.17;1.07;;;2.30;99.90;;;;;;5082317;28;20119;-74
2024/01/21 04:09:57;;;;;;;1.00;1.00;;;2.30;99.90;;;;;;5103776;28;20111;-74
2024/01/21 04:12:22;;;;;;;1.17;1.07;;;2.30;99.90;;;;;;5103796;28;20379;-74
2024/01/21 04:14:48;;;;;;;1.17;1.13;;;2.30;99.90;;;;;;5101403;28;20016;-74
2024/01/21 04:17:14;;;;;;;1.30;1.20;;;2.30;99.90;;;;;;5102347;28;20562;-73
2024/01/21 04:19:43;;;;;;;0.90;0.90;;;2.30;99.90;;;;;;5115294;27;20034;-74
2024/01/21 04:22:08;;;;;;;1.30;1.20;;;2.20;99.90;;;;;;5084304;28;20028;-74
2024/01/21 04:24:34;;;;;;;1.40;1.30;;;2.30;99.90;;;;;;5090934;28;20433;-73
2024/01/21 04:27:00;;;;;;;1.27;1.17;;;2.30;99.90;;;;;;5103448;28;20027;-74
2024/01/21 04:29:26;;;;;;;2.20;1.43;;;2.30;99.90;;;;;;5103208;28;20027;-74
2024/01/21 04:31:51;;;;;;;1.50;1.40;;;2.30;99.90;;;;;;5099690;28;20024;-74
2024/01/21 04:34:17;;;;;;;1.50;1.40;;;2.30;99.90;;;;;;5078513;28;20073;-73
2024/01/21 04:36:43;;;;;;;1.23;1.17;;;2.40;99.90;;;;;;5088718;28;20034;-73
2024/01/21 04:39:09;;;;;;;3.43;1.50;;;2.40;99.90;;;;;;5086180;28;20127;-74
2024/01/21 04:41:35;;;;;;;1.30;1.20;;;2.40;99.90;;;;;;5082963;28;20028;-73
2024/01/21 04:44:01;;;;;;;1.47;1.37;;;2.40;99.90;;;;;;5071354;28;20017;-74
2024/01/21 04:46:27;;;;;;;1.57;1.40;;;2.40;99.90;;;;;;5081501;28;20021;-73
2024/01/21 04:48:53;;;;;;;1.33;1.23;;;2.40;99.90;;;;;;5081252;28;20027;-74
2024/01/21 04:51:18;;;;;;;1.80;1.30;;;2.40;99.90;;;;;;5080844;28;20031;-74
2024/01/21 04:53:44;;;;;;;1.70;1.60;;;2.40;99.90;;;;;;5081721;28;20495;-74
2024/01/21 04:56:17;;;;;;;1.90;1.57;;;2.40;99.90;;;;;;5080155;28;20039;-73
2024/01/21 04:58:44;;;;;;;1.60;1.50;;;2.40;99.90;;;;;;5081812;28;20020;-74
2024/01/21 05:01:10;;;;;;;1.73;1.63;;;2.40;99.90;;;;;;5067777;28;20468;-74
2024/01/21 05:03:35;;;;;;;1.27;1.17;;;2.40;99.90;;;;;;5082375;28;20032;-73
2024/01/21 05:06:01;;;;;;;1.03;1.03;;;2.40;99.90;;;;;;5080360;28;20024;-74
2024/01/21 05:08:27;;;;;;;1.83;1.73;;;2.40;99.90;;;;;;5063227;28;20368;-74
2024/01/21 05:10:53;;;;;;;1.93;1.67;;;2.30;99.90;;;;;;5085594;28;20032;-73
2024/01/21 05:13:19;;;;;;;4.00;1.90;;;2.20;99.90;;;;;;5075668;28;20028;-73
2024/01/21 05:15:45;;;;;;;1.60;1.50;;;2.00;99.90;;;;;;5084717;28;20020;-73
2024/01/21 05:18:10;;;;;;;1.57;1.47;;;2.00;99.90;;;;;;5085783;28;20429;-73
2024/01/21 05:20:36;;;;;;;1.70;1.60;;;2.00;99.90;;;;;;5083920;28;20024;-74
2024/01/21 05:23:03;;;;;;;2.30;2.10;;;1.90;99.90;;;;;;5085916;28;20020;-74
2024/01/21 05:25:28;;;;;;;1.77;1.60;;;2.00;99.90;;;;;;5065035;28;20032;-73
2024/01/21 05:27:55;;;;;;;1.37;1.27;;;2.10;99.90;;;;;;5076476;28;20077;-74
2024/01/21 05:30:21;;;;;;;1.70;1.60;;;2.20;99.90;;;;;;5098631;28;20025;-74
2024/01/21 05:32:50;;;;;;;1.47;1.30;;;2.10;99.90;;;;;;5085938;28;20023;-74
2024/01/21 05:35:16;;;;;;;1.77;1.63;;;2.10;99.90;;;;;;5074833;28;20081;-74
2024/01/21 05:37:42;;;;;;;1.47;1.37;;;1.90;99.90;;;;;;5084739;28;20070;-74
2024/01/21 05:40:08;;;;;;;2.07;1.80;;;1.90;99.90;;;;;;5103930;28;20052;-74
2024/01/21 05:42:34;;;;;;;3.53;1.80;;;1.80;99.90;;;;;;5093873;28;20031;-73
2024/01/21 05:45:00;;;;;;;1.93;1.60;;;1.70;99.90;;;;;;5121335;27;20394;-74
2024/01/21 05:47:26;;;;;;;1.60;1.50;;;1.70;99.90;;;;;;5093405;28;20508;-74
2024/01/21 05:49:51;;;;;;;1.97;1.87;;;1.70;99.90;;;;;;5105978;28;20069;-74
2024/01/21 05:52:17;;;;;;;2.83;1.67;;;1.70;99.90;;;;;;5093078;28;20177;-74
2024/01/21 05:54:43;;;;;;;3.37;1.53;;;1.70;99.90;;;;;;5106357;28;20027;-73
2024/01/21 05:57:12;;;;;;;2.00;1.90;;;1.50;99.90;;;;;;5084381;28;20545;-73
2024/01/21 05:59:38;;;;;;;2.03;1.90;;;1.40;1.00;;;;;;5105424;28;20031;-73
2024/01/21 06:02:07;;;;;;;3.13;1.90;;;1.30;1.00;;;;;;5106357;28;20034;-74
2024/01/21 06:04:33;;;;;;;2.27;2.10;;;1.20;1.00;;;;;;5104300;28;20028;-73
2024/01/21 06:06:59;;;;;;;1.97;1.87;;;1.10;1.00;;;;;;5103931;28;20031;-74
2024/01/21 06:09:25;;;;;;;1.33;1.23;;;1.10;1.00;;;;;;5087743;28;20036;-73
2024/01/21 06:11:51;;;;;;;1.47;1.47;;;1.00;1.00;;;;;;5106079;28;20378;-74
2024/01/21 06:14:16;;;;;;;2.20;2.00;;;1.10;1.00;;;;;;5121221;27;20019;-73
2024/01/21 06:16:43;;;;;;;1.90;1.80;;;0.90;1.00;;;;;;5102573;28;20035;-73
2024/01/21 06:19:08;;;;;;;1.70;1.60;;;0.90;1.00;;;;;;5087655;28;20027;-74
2024/01/21 06:21:40;;;;;;;1.90;1.80;;;1.00;1.00;;;;;;5100848;28;20522;-74
2024/01/21 06:24:05;;;;;;;1.60;1.50;;;1.00;1.00;;;;;;5104717;28;20070;-73
2024/01/21 06:26:31;;;;;;;1.33;1.23;;;1.00;1.00;;;;;;5103721;28;20498;-73
2024/01/21 06:28:57;;;;;;;1.30;1.20;;;1.10;99.90;;;;;;5093499;28;20020;-74
2024/01/21 06:31:23;;;;;;;1.30;1.20;;;1.40;99.90;;;;;;5104092;28;20028;-73
2024/01/21 06:33:49;;;;;;;1.77;1.37;;;1.50;99.90;;;;;;5083641;28;20028;-75
2024/01/21 06:36:14;;;;;;;1.47;1.20;;;1.70;99.90;;;;;;5102841;28;20035;-73
2024/01/21 06:38:40;;;;;;;1.30;1.20;;;1.90;99.90;;;;;;5104663;28;20452;-74
2024/01/21 06:41:06;;;;;;;1.50;1.40;;;2.00;99.90;;;;;;5095518;28;20059;-74
2024/01/21 06:43:32;;;;;;;1.60;1.50;;;2.00;99.90;;;;;;5105812;28;20019;-74
2024/01/21 06:45:58;;;;;;;2.13;1.50;;;2.00;99.90;;;;;;5101570;28;20024;-74
2024/01/21 06:48:23;;;;;;;1.40;1.30;;;2.10;99.90;;;;;;5105224;28;20019;-73
2024/01/21 06:50:51;;;;;;;1.20;1.10;;;2.10;99.90;;;;;;5117888;27;20032;-73
2024/01/21 06:53:16;;;;;;;3.50;1.37;;;2.20;99.90;;;;;;5102743;28;20021;-73
2024/01/21 06:55:45;;;;;;;1.67;1.57;;;2.20;99.90;;;;;;5101152;28;20023;-74
2024/01/21 06:58:12;;;;;;;1.40;1.30;;;2.20;99.90;;;;;;5103288;28;20024;-74
2024/01/21 07:00:38;;;;;;;3.17;1.63;;;2.30;99.90;;;;;;5102886;28;20034;-73
2024/01/21 07:03:04;;;;;;;1.60;1.10;;;2.30;99.90;;;;;;5103992;28;20554;-73
2024/01/21 07:05:29;;;;;;;1.70;1.50;;;2.30;99.90;;;;;;5102099;28;20028;-74
2024/01/21 07:07:56;;;;;;;3.33;1.73;;;2.30;99.90;;;;;;5104551;28;20153;-74
2024/01/21 07:10:23;;;;;;;1.50;1.40;;;2.30;99.90;;;;;;5082745;28;20478;-73
2024/01/21 07:12:49;;;;;;;2.13;1.50;;;2.40;99.90;;;;;;5102879;28;20106;-74
2024/01/21 07:15:15;;;;;;;1.73;1.47;;;2.40;99.90;;;;;;5104398;28;20057;-74
2024/01/21 07:17:40;;;;;;;2.20;2.00;;;2.40;99.90;;;;;;5083509;28;20388;-73
2024/01/21 07:20:10;;;;;;;2.57;1.70;;;2.40;99.90;;;;;;5103697;28;20262;-74
2024/01/21 07:22:36;;;;;;;4.17;2.00;;;2.40;99.90;;;;;;5084700;28;20032;-73
2024/01/21 07:25:02;;;;;;;2.73;2.53;;;2.30;99.90;;;;;;5102383;28;20032;-74
2024/01/21 07:27:28;;;;;;;5.00;2.57;;;2.20;99.90;;;;;;5085072;28;20224;-73
2024/01/21 07:29:53;;;;;;;2.83;2.63;;;2.20;99.90;;;;;;5101703;28;20669;-73
2024/01/21 07:32:19;;;;;;;3.23;2.93;;;2.20;99.90;;;;;;5104564;28;20546;-74
2024/01/21 07:34:45;;;;;;;4.33;4.03;;;2.20;99.90;;;;;;5104732;28;20026;-74
2024/01/21 07:37:11;;;;;;;7.63;4.50;;;2.20;99.90;;;;;;5100725;28;20043;-74
2024/01/21 07:39:37;;;;;;;4.00;3.60;;;1.90;99.90;;;;;;5107257;27;20049;-74
2024/01/21 07:42:06;;;;;;;7.63;6.50;;;1.90;99.90;;;;;;5071075;28;20073;-74
2024/01/21 07:44:35;;;;;;;7.40;6.70;;;1.80;99.90;;;;;;5082936;28;20020;-73
2024/01/21 07:47:01;;;;;;;4.33;4.03;;;1.80;99.90;;;;;;5082005;28;20407;-73
2024/01/21 07:49:26;;;;;;;4.50;3.30;;;1.80;99.90;;;;;;5063604;28;21999;-73
2024/01/21 07:51:52;;;;;;;8.43;7.57;;;1.80;99.90;;;;;;5073301;28;20025;-74
2024/01/21 07:54:18;;;;;;;5.43;4.43;;;1.90;99.90;;;;;;5081223;28;20020;-74
2024/01/21 07:56:43;;;;;;;14.90;11.27;;;1.90;99.90;;;;;;5083026;28;20056;-73
2024/01/21 07:59:09;;;;;;;23.93;17.00;;;2.00;99.90;;;;;;5080345;28;20597;-73
2024/01/21 08:01:35;;;;;;;9.43;7.37;;;2.00;99.90;;;;;;5083448;28;20043;-73
2024/01/21 08:04:00;;;;;;;8.00;4.93;;;2.00;1.00;;;;;;5079844;28;20116;-74
2024/01/21 08:06:26;;;;;;;5.67;4.50;;;2.00;1.00;;;;;;5083587;28;20016;-74
2024/01/21 08:08:52;;;;;;;6.90;5.73;;;2.00;1.00;;;;;;5082750;28;20154;-73
2024/01/21 08:11:17;;;;;;;10.80;9.20;;;2.00;1.00;;;;;;5083261;28;20036;-73
2024/01/21 08:13:44;;;;;;;9.73;8.73;;;2.10;1.00;;;;;;5080603;28;20431;-74
2024/01/21 08:16:10;;;;;;;10.20;7.27;;;2.10;1.00;;;;;;5063956;28;20070;-74
2024/01/21 08:18:36;;;;;;;7.93;5.80;;;2.10;1.00;;;;;;5072001;28;20020;-73
2024/01/21 08:21:02;;;;;;;6.93;5.13;;;2.10;1.00;;;;;;5081327;28;20373;-73
2024/01/21 08:23:29;;;;;;;8.60;6.07;;;2.10;1.00;;;;;;5072866;28;20064;-74
2024/01/21 08:25:55;;;;;;;8.60;5.30;;;2.10;1.00;;;;;;5080593;28;20095;-73
2024/01/21 08:28:21;;;;;;;5.80;5.03;;;2.20;1.00;;;;;;5098115;28;20032;-73
2024/01/21 08:30:46;;;;;;;6.40;4.90;;;2.20;1.00;;;;;;5079667;28;20427;-73
2024/01/21 08:33:12;;;;;;;4.90;4.50;;;2.20;1.00;;;;;;5098857;28;20035;-74
2024/01/21 08:35:39;;;;;;;5.07;4.20;;;2.20;1.00;;;;;;5079406;28;20028;-74
2024/01/21 08:38:05;;;;;;;3.90;3.57;;;2.30;1.00;;;;;;5082584;28;20035;-74
2024/01/21 08:40:31;;;;;;;4.40;4.00;;;2.30;1.00;;;;;;5070697;28;20052;-74
2024/01/21 08:42:57;;;;;;;4.13;3.70;;;2.30;1.00;;;;;;5083156;28;20031;-74
2024/01/21 08:45:22;;;;;;;4.10;3.70;;;2.30;1.00;;;;;;5070439;28;20516;-74
2024/01/21 08:47:48;;;;;;;4.40;4.00;;;2.40;1.00;;;;;;5080990;28;20029;-74
2024/01/21 08:50:14;;;;;;;6.20;4.13;;;2.40;99.90;;;;;;5081067;28;20024;-74
2024/01/21 08:52:39;;;;;;;7.03;4.83;;;2.40;99.90;;;;;;5081521;28;20475;-74
2024/01/21 08:55:06;;;;;;;6.37;5.73;;;2.40;99.90;;;;;;5070211;28;20032;-73
2024/01/21 08:57:32;;;;;;;6.57;5.47;;;2.50;99.90;;;;;;5063826;28;20195;-74
2024/01/21 08:59:57;;;;;;;8.33;4.67;;;2.50;99.90;;;;;;5095274;28;20031;-73
2024/01/21 09:02:23;;;;;;;4.83;4.40;;;2.50;99.90;;;;;;5086073;28;20107;-74
2024/01/21 09:04:49;;;;;;;6.83;5.07;;;2.60;99.90;;;;;;5089728;28;20030;-73
2024/01/21 09:07:14;;;;;;;5.60;5.00;;;2.70;99.90;;;;;;5083047;28;20039;-74
2024/01/21 09:09:40;;;;;;;5.57;4.40;;;2.70;99.90;;;;;;5070843;28;20033;-73
2024/01/21 09:12:07;;;;;;;4.57;3.70;;;2.70;99.90;;;;;;5105409;28;20520;-73
2024/01/21 09:14:34;;;;;;;7.43;4.63;;;2.80;99.90;;;;;;5081762;28;20016;-73
2024/01/21 09:16:59;;;;;;;6.10;5.30;;;2.90;99.90;;;;;;5080542;28;20533;-73
2024/01/21 09:19:25;;;;;;;5.87;5.37;;;3.00;99.90;;;;;;5085952;28;20017;-74
2024/01/21 09:21:51;;;;;;;7.43;5.10;;;3.00;99.90;;;;;;5069246;28;20498;-74
2024/01/21 09:24:17;;;;;;;5.97;4.00;;;3.10;99.90;;;;;;5089449;28;20058;-73
2024/01/21 09:26:43;;;;;;;6.30;3.70;;;3.20;99.90;;;;;;5089976;28;20063;-74
2024/01/21 09:29:09;;;;;;;9.87;4.40;;;3.20;99.90;;;;;;5071629;28;20048;-74
2024/01/21 09:31:35;;;;;;;15.27;4.53;;;3.20;99.90;;;;;;5090332;28;20039;-74
2024/01/21 09:34:01;;;;;;;5.57;4.00;;;3.30;99.90;;;;;;5093149;28;20044;-74
2024/01/21 09:36:27;;;;;;;9.07;7.97;;;3.40;99.90;;;;;;5068878;28;20496;-74
2024/01/21 09:38:56;;;;;;;7.25;4.82;;;3.40;99.90;;;;;;5090261;28;20046;-74
2024/01/21 09:41:42;;;;;;;11.43;4.93;;;3.50;99.90;;;;;;5106195;28;20040;-74
2024/01/21 09:44:08;;;;;;;9.98;5.57;;;3.50;99.90;;;;;;5106167;28;20351;-73
2024/01/21 09:46:34;;;;;;;6.93;5.50;;;3.50;99.90;;;;;;5110580;28;20035;-73
2024/01/21 09:49:03;;;;;;;7.47;5.75;;;3.60;99.90;;;;;;5092033;28;20050;-74
2024/01/21 09:51:32;;;;;;;6.03;5.32;;;3.60;99.90;;;;;;5093449;28;20035;-74
2024/01/21 09:54:00;;;;;;;8.25;6.53;;;3.60;99.90;;;;;;5088895;28;20025;-73
2024/01/21 09:56:26;;;;;;;17.58;12.90;;;3.60;99.90;;;;;;5107186;28;20035;-74
2024/01/21 09:58:54;;;;;;;12.02;8.45;;;3.70;99.90;;;;;;5091260;28;20032;-73
2024/01/21 10:01:21;;;;;;;29.20;22.17;;;3.80;99.90;;;;;;5109760;28;20113;-74
2024/01/21 10:03:47;;;;;;;17.17;14.20;;;3.80;99.90;;;;;;5106702;28;20483;-73
2024/01/21 10:06:13;;;;;;;12.85;10.32;;;3.90;99.90;;;;;;5112045;28;20016;-73
2024/01/21 10:08:39;;;;;;;10.75;7.40;;;3.90;99.90;;;;;;5111755;28;20087;-75
2024/01/21 10:11:06;;;;;;;10.57;9.07;;;4.00;99.90;;;;;;5093858;28;20023;-77
2024/01/21 10:13:38;;;;;;;14.80;8.85;;;4.00;99.90;;;;;;5104530;28;20028;-77
2024/01/21 10:16:05;;;;;;;24.85;17.75;;;4.00;99.90;;;;;;5093869;28;20535;-77
2024/01/21 10:18:31;;;;;;;12.02;8.88;;;4.00;99.90;;;;;;5108407;28;20023;-77
2024/01/21 10:20:58;;;;;;;8.90;8.00;;;4.00;99.90;;;;;;5109407;28;20031;-77
2024/01/21 10:23:23;;;;;;;7.28;6.57;;;4.10;99.90;;;;;;5088881;28;20511;-77
2024/01/21 10:25:49;;;;;;;6.32;5.70;;;4.10;99.90;;;;;;5112423;28;20044;-77
2024/01/21 10:28:16;;;;;;;8.63;6.07;;;4.10;99.90;;;;;;5114971;28;20098;-76
2024/01/21 10:30:44;;;;;;;12.63;8.65;;;4.20;99.90;;;;;;5115808;28;20039;-77
2024/01/21 10:33:10;;;;;;;12.15;8.65;;;4.20;99.90;;;;;;5114201;28;20347;-74
2024/01/21 10:35:36;;;;;;;6.43;5.82;;;4.30;99.90;;;;;;5093327;28;20115;-73
2024/01/21 10:38:05;;;;;;;13.98;5.70;;;4.30;99.90;;;;;;5105570;28;20108;-73
2024/01/21 10:40:32;;;;;;;6.03;4.28;;;4.40;99.90;;;;;;5077435;28;20059;-74
2024/01/21 10:42:59;;;;;;;5.20;4.75;;;4.50;99.90;;;;;;5089960;28;20024;-73
2024/01/21 10:45:26;;;;;;;5.10;4.38;;;4.60;99.90;;;;;;5085356;28;20039;-77
2024/01/21 10:47:53;;;;;;;6.07;4.93;;;4.60;99.90;;;;;;5085260;28;20032;-77
2024/01/21 10:50:22;;;;;;;8.15;6.80;;;4.70;99.90;;;;;;5082897;28;20104;-77
2024/01/21 10:52:49;;;;;;;6.88;5.57;;;4.70;99.90;;;;;;5090247;28;20024;-77
2024/01/21 10:55:15;;;;;;;19.70;14.48;;;4.70;99.90;;;;;;5075101;28;20032;-77
2024/01/21 10:57:42;;;;;;;12.68;9.77;;;4.80;99.90;;;;;;5091753;28;20019;-77
2024/01/21 11:00:09;;;;;;;18.50;13.40;;;4.80;99.90;;;;;;5080222;28;20438;-77
2024/01/21 11:02:36;;;;;;;10.45;6.78;;;4.80;99.90;;;;;;5071174;28;20085;-77
2024/01/21 11:05:05;;;;;;;7.68;5.10;;;4.90;99.90;;;;;;5070428;28;20407;-77
2024/01/21 11:07:31;;;;;;;5.20;4.63;;;5.00;99.90;;;;;;5071947;28;20021;-76
2024/01/21 11:09:57;;;;;;;5.30;4.80;;;5.00;99.90;;;;;;5092131;28;20505;-76
2024/01/21 11:12:23;;;;;;;6.55;5.30;;;5.00;99.90;;;;;;5092486;28;20012;-76
2024/01/21 11:14:50;;;;;;;8.85;5.80;;;5.10;99.90;;;;;;5075441;28;20025;-77
2024/01/21 11:17:19;;;;;;;8.30;5.57;;;5.10;99.90;;;;;;5086584;28;20507;-77
2024/01/21 11:19:48;;;;;;;5.95;4.90;;;5.20;99.90;;;;;;5091869;28;20035;-77
2024/01/21 11:22:16;;;;;;;8.32;5.60;;;5.20;99.90;;;;;;5085013;28;20035;-77
2024/01/21 11:24:42;;;;;;;10.02;5.35;;;5.30;99.90;;;;;;5071399;28;20078;-76
2024/01/21 11:27:21;;;;;;;8.23;5.35;;;5.30;99.90;;;;;;5086937;28;20028;-77
2024/01/21 11:30:13;;;;;;;7.15;6.32;;;5.40;99.90;;;;;;5076844;28;20031;-77
2024/01/21 11:32:41;;;;;;;11.32;7.00;;;5.40;99.90;;;;;;5071876;28;20032;-77
2024/01/21 11:35:13;;;;;;;9.13;6.25;;;5.40;99.90;;;;;;5087947;28;20050;-77
2024/01/21 11:37:41;;;;;;;6.53;5.93;;;5.50;99.90;;;;;;5080183;28;20020;-77
2024/01/21 11:40:07;;;;;;;8.65;6.72;;;5.50;99.90;;;;;;5065662;28;20080;-77
2024/01/21 11:42:34;;;;;;;9.43;6.40;;;5.60;99.90;;;;;;5073859;28;20450;-77
2024/01/21 11:45:04;;;;;;;7.45;6.45;;;5.60;99.90;;;;;;5082744;28;20103;-77
2024/01/21 11:47:30;;;;;;;8.40;6.88;;;5.70;99.90;;;;;;5070998;28;20440;-77
2024/01/21 11:49:58;;;;;;;10.02;6.57;;;5.70;99.90;;;;;;5096262;28;20028;-77
2024/01/21 11:52:23;;;;;;;10.98;8.07;;;5.70;99.90;;;;;;5080397;28;20020;-77
2024/01/21 11:54:49;;;;;;;8.88;7.38;;;5.80;99.90;;;;;;5084147;28;20553;-77
2024/01/21 11:57:15;;;;;;;7.82;7.10;;;5.80;99.90;;;;;;5080552;28;20058;-77
2024/01/21 11:59:41;;;;;;;10.00;7.60;;;5.80;99.90;;;;;;5069997;28;20391;-77
2024/01/21 12:02:10;;;;;;;7.68;6.57;;;5.80;99.90;;;;;;5083657;28;20027;-77
2024/01/21 12:04:39;;;;;;;8.70;6.22;;;5.90;99.90;;;;;;5084795;28;20052;-77
2024/01/21 12:07:05;;;;;;;6.35;5.72;;;6.00;99.90;;;;;;5081846;28;20017;-77
2024/01/21 12:09:31;;;;;;;6.78;6.07;;;6.00;99.90;;;;;;5065385;28;20084;-77
2024/01/21 12:11:58;;;;;;;7.90;7.00;;;6.10;99.90;;;;;;5096183;28;20020;-77
2024/01/21 12:14:24;;;;;;;10.50;6.65;;;6.20;99.90;;;;;;5080333;28;20025;-77
2024/01/21 12:16:52;;;;;;;6.95;6.28;;;6.20;99.90;;;;;;5064753;28;20078;-77
2024/01/21 12:19:18;;;;;;;7.18;6.47;;;6.30;99.90;;;;;;5075221;28;20073;-77
2024/01/21 12:21:44;;;;;;;12.95;7.38;;;6.30;99.90;;;;;;5075084;28;20021;-77
2024/01/21 12:24:10;;;;;;;8.35;7.35;;;6.40;99.90;;;;;;5079042;28;20024;-77
2024/01/21 12:26:36;;;;;;;8.27;7.47;;;6.40;99.90;;;;;;5072938;28;20491;-77
2024/01/21 12:29:09;;;;;;;8.75;6.57;;;6.50;99.90;;;;;;5073443;28;20157;-77
2024/01/21 12:31:37;;;;;;;8.73;6.40;;;6.60;99.90;;;;;;5074008;28;20043;-77
2024/01/21 12:34:05;;;;;;;8.27;6.60;;;6.60;99.90;;;;;;5073801;28;20024;-77
2024/01/21 12:36:34;;;;;;;6.50;5.93;;;6.60;99.90;;;;;;5073911;28;20016;-77
2024/01/21 12:39:02;;;;;;;14.13;6.90;;;6.60;99.90;;;;;;5082416;28;20044;-77
2024/01/21 12:41:28;;;;;;;8.05;5.95;;;6.60;99.90;;;;;;5093877;28;20024;-77
2024/01/21 12:43:54;;;;;;;6.68;5.70;;;6.70;99.90;;;;;;5093817;28;20191;-77
2024/01/21 12:46:20;;;;;;;6.68;5.15;;;6.70;99.90;;;;;;5080353;28;20032;-77
2024/01/21 12:48:50;;;;;;;5.40;4.90;;;6.70;99.90;;;;;;5074817;28;20242;-77
2024/01/21 12:51:17;;;;;;;5.72;5.20;;;6.70;99.90;;;;;;5087824;28;20441;-77
2024/01/21 12:53:44;;;;;;;8.52;6.00;;;6.70;99.90;;;;;;5074802;28;20024;-77